Main page
METAR-TAF:

METAR-TAF

Airports :

N'Djamena International Airport

N'Djamena, Chad

latitude: 12-08N, longitude: 015-02E, elevation: 295 m

Current weather observation

The report was made 1 hour and 38 minutes ago, at 21:00 UTC
Wind 4 kt from the South/Southwest
Temperature 29°C
Humidity 79%
Pressure 1011 hPa
Visibility: 8000 m
Few clouds at a height of 2000 ft

METAR: FTTJ 092100Z 21004KT 8000 FEW020 29/25 Q1011 RETS NOSIG

Time: 23:38 (22:38 UTC)

Forecast

The report was made 5 hours and 38 minutes ago, at 17:00 UTC
Forecast valid from 09 at 18 UTC to 10 at 24 UTC
Wind 7 kt from the South/Southwest
Visibility: 8000 m
Scattered clouds at a height of 2600 ft
Few clouds at a height of 5000 ft, Cumulonimbus.
Temporary
from 09 at 18 UTC to 10 at 00 UTC
Visibility: 4000 m
thunderstorm, rain
Temporary
from 10 at 16 UTC to 10 at 24 UTC
Visibility: 4000 m
thunderstorm, rain

TAF: FTTJ 091700Z 0918/1024 20007KT 8000 SCT026 FEW050CB TEMPO 0918/1000 4000 TSRA TEMPO 1016/1024 4000 TSRA

Weather observations and forecasts of more than 4000 airports (METAR and TAF reports).

The available stations are represented by yellow and red dots on the map.

Hover mouse over dot to see the name of the station.

Then click to see weather observations and forecasts.

To change the map : click on the green buttons with a black cross to zoom in, on the green button with a dash to zoom out, or on the green arrows for adjacent maps.


METAR-TAF: